Time;durP1;ratioP1;P1;durP2;ratioP2;P2;SDS_P1;SDS_P2;PMS_P1;PMS_P2;Temp;Humidity;BMP_temperature;BMP_pressure;BME280_temperature;BME280_humidity;BME280_pressure;Samples;Min_cycle;Max_cycle;Signal;HPM_P1;HPM_P2
2021/03/15 00:00:16;;;;;;;7.33;6.20;;;8.90;99.50;;;;;;5071360;28;20411;-72
2021/03/15 00:02:43;;;;;;;6.97;6.33;;;8.90;99.60;;;;;;5072098;28;20228;-72
2021/03/15 00:05:11;;;;;;;7.70;7.00;;;8.90;99.60;;;;;;5071136;28;20411;-72
2021/03/15 00:07:38;;;;;;;7.93;7.13;;;8.90;99.40;;;;;;5072325;28;20378;-72
2021/03/15 00:10:05;;;;;;;7.27;6.57;;;9.00;99.30;;;;;;5079862;28;20392;-72
2021/03/15 00:12:31;;;;;;;8.43;7.30;;;9.00;99.20;;;;;;5092221;28;20886;-72
2021/03/15 00:14:56;;;;;;;7.70;7.10;;;9.00;99.10;;;;;;5092402;28;20418;-72
2021/03/15 00:17:22;;;;;;;8.77;7.87;;;9.00;99.00;;;;;;5091112;28;20600;-72
2021/03/15 00:19:48;;;;;;;9.00;7.60;;;9.10;99.10;;;;;;5091861;28;20164;-72
2021/03/15 00:22:14;;;;;;;10.77;7.67;;;9.00;99.10;;;;;;5093247;28;20186;-72
2021/03/15 00:24:39;;;;;;;8.40;7.60;;;8.90;99.20;;;;;;5095925;28;20525;-72
2021/03/15 00:27:05;;;;;;;8.83;7.73;;;9.00;99.20;;;;;;5076995;28;20187;-72
2021/03/15 00:29:31;;;;;;;9.00;8.10;;;8.90;99.20;;;;;;5095851;28;20176;-72
2021/03/15 00:31:57;;;;;;;9.10;8.30;;;9.10;99.30;;;;;;5096124;28;20758;-72
2021/03/15 00:34:22;;;;;;;9.90;8.33;;;9.10;99.10;;;;;;5095212;28;20175;-72
2021/03/15 00:36:48;;;;;;;9.97;8.63;;;9.10;99.10;;;;;;5095992;28;20179;-72
2021/03/15 00:39:14;;;;;;;10.87;9.50;;;9.10;99.00;;;;;;5076994;28;20172;-72
2021/03/15 00:41:40;;;;;;;10.07;9.07;;;9.00;98.90;;;;;;5095879;28;20471;-72
2021/03/15 00:44:08;;;;;;;10.10;9.10;;;8.90;99.20;;;;;;5073445;28;20235;-73
2021/03/15 00:46:34;;;;;;;10.30;9.07;;;8.90;99.30;;;;;;5075679;28;20427;-72
2021/03/15 00:48:59;;;;;;;9.80;8.67;;;8.90;99.50;;;;;;5075463;28;20410;-72
2021/03/15 00:51:25;;;;;;;11.73;9.67;;;8.90;99.70;;;;;;5075014;28;20399;-72
2021/03/15 00:53:51;;;;;;;12.57;10.43;;;9.00;99.70;;;;;;5075467;28;20164;-72
2021/03/15 00:56:17;;;;;;;12.30;11.00;;;9.00;99.80;;;;;;5073513;28;20237;-72
2021/03/15 00:58:43;;;;;;;11.97;10.77;;;9.00;99.80;;;;;;5075418;28;20370;-72
2021/03/15 01:01:09;;;;;;;14.33;11.23;;;8.90;99.90;;;;;;5056772;28;20271;-73
2021/03/15 01:03:35;;;;;;;13.37;11.97;;;9.00;99.80;;;;;;5075200;28;20453;-72
2021/03/15 01:06:01;;;;;;;15.57;11.83;;;9.00;99.90;;;;;;5075236;28;20381;-73
2021/03/15 01:08:26;;;;;;;13.07;11.63;;;8.90;99.90;;;;;;5074431;28;20223;-72
2021/03/15 01:10:52;;;;;;;14.27;12.30;;;8.90;99.90;;;;;;5075069;28;20270;-72
2021/03/15 01:13:18;;;;;;;17.73;12.67;;;8.90;99.90;;;;;;5074304;28;20411;-72
2021/03/15 01:15:45;;;;;;;13.77;12.47;;;9.00;99.90;;;;;;5075030;28;20638;-72
2021/03/15 01:18:12;;;;;;;18.20;13.20;;;8.90;99.90;;;;;;5074283;28;20213;-72
2021/03/15 01:20:38;;;;;;;13.63;12.33;;;8.90;99.90;;;;;;5074743;28;20482;-72
2021/03/15 01:23:05;;;;;;;19.93;12.90;;;8.80;99.90;;;;;;5074283;28;20451;-72
2021/03/15 01:25:36;;;;;;;14.00;11.70;;;8.80;99.90;;;;;;5074479;28;20980;-72
2021/03/15 01:28:03;;;;;;;12.57;11.00;;;8.80;99.90;;;;;;5073523;28;20445;-73
2021/03/15 01:30:31;;;;;;;12.23;10.87;;;8.90;99.90;;;;;;5073558;28;20425;-72
2021/03/15 01:32:57;;;;;;;11.97;10.77;;;8.90;99.90;;;;;;5057563;28;20416;-72
2021/03/15 01:35:23;;;;;;;12.67;11.13;;;8.90;99.90;;;;;;5054467;28;20511;-73
2021/03/15 01:37:49;;;;;;;13.57;11.30;;;9.00;99.90;;;;;;5054475;28;20424;-72
2021/03/15 01:40:16;;;;;;;11.47;10.20;;;9.00;99.90;;;;;;5053547;28;20806;-73
2021/03/15 01:42:42;;;;;;;12.07;10.50;;;8.90;99.90;;;;;;5058082;28;20477;-72
2021/03/15 01:45:09;;;;;;;10.43;9.53;;;8.90;99.90;;;;;;5073673;28;20418;-73
2021/03/15 01:47:36;;;;;;;11.97;9.13;;;8.90;99.90;;;;;;5056780;28;20872;-73
2021/03/15 01:50:03;;;;;;;8.63;7.83;;;8.90;99.90;;;;;;5074096;28;20388;-73
2021/03/15 01:52:29;;;;;;;8.23;7.57;;;8.90;99.90;;;;;;5073786;28;20476;-72
2021/03/15 01:54:54;;;;;;;12.57;9.50;;;8.90;99.90;;;;;;5074413;28;20921;-72
2021/03/15 01:57:20;;;;;;;9.43;8.43;;;8.90;99.90;;;;;;5073417;28;20184;-73
2021/03/15 01:59:46;;;;;;;8.67;7.83;;;8.90;99.90;;;;;;5074273;28;20164;-72
2021/03/15 02:02:13;;;;;;;8.60;7.70;;;8.90;99.90;;;;;;5075219;28;20786;-73
2021/03/15 02:04:39;;;;;;;8.00;7.30;;;9.00;99.90;;;;;;5094090;28;20676;-72
2021/03/15 02:07:05;;;;;;;7.93;7.20;;;9.00;99.90;;;;;;5093820;28;20456;-73
2021/03/15 02:09:31;;;;;;;8.83;8.03;;;9.00;99.90;;;;;;5093788;28;20395;-72
2021/03/15 02:12:08;;;;;;;8.53;7.73;;;9.00;99.90;;;;;;5094248;28;20610;-72
2021/03/15 02:14:46;;;;;;;9.10;7.93;;;8.90;99.90;;;;;;5081038;28;20391;-72
2021/03/15 02:17:59;;;;;;;8.43;7.57;;;8.90;99.90;;;;;;5075474;28;20406;-72
2021/03/15 02:20:35;;;;;;;8.63;7.73;;;8.90;99.90;;;;;;5065357;28;21042;-72
2021/03/15 02:23:14;;;;;;;8.00;7.20;;;8.90;99.90;;;;;;5080549;28;20450;-72
2021/03/15 02:26:17;;;;;;;8.43;7.60;;;8.80;99.90;;;;;;5081720;28;20391;-72
2021/03/15 02:29:12;;;;;;;7.60;6.90;;;8.80;99.90;;;;;;4982342;28;20394;-72
2021/03/15 02:32:11;;;;;;;8.00;7.20;;;8.90;99.90;;;;;;5083431;28;20384;-72
2021/03/15 02:35:01;;;;;;;7.30;6.60;;;8.90;99.90;;;;;;5083323;28;20380;-72
2021/03/15 02:37:33;;;;;;;7.80;7.10;;;8.90;99.90;;;;;;5085660;28;20412;-72
2021/03/15 02:40:10;;;;;;;8.03;7.40;;;8.90;99.90;;;;;;5093925;28;20354;-72
2021/03/15 02:42:37;;;;;;;8.33;7.53;;;8.90;99.90;;;;;;5093485;28;20465;-72
2021/03/15 02:45:06;;;;;;;7.80;7.10;;;8.80;99.90;;;;;;5074928;28;20414;-72
2021/03/15 02:47:37;;;;;;;8.07;7.47;;;8.90;99.90;;;;;;5092820;28;20399;-72
2021/03/15 02:50:07;;;;;;;7.93;7.23;;;8.90;99.90;;;;;;5093665;28;20375;-72
2021/03/15 02:52:36;;;;;;;10.00;8.07;;;8.80;99.90;;;;;;5093037;28;20432;-72
2021/03/15 02:55:04;;;;;;;8.50;7.80;;;8.80;99.90;;;;;;5093058;28;20381;-72
2021/03/15 02:57:33;;;;;;;8.83;6.97;;;8.80;99.90;;;;;;5092483;28;20425;-72
2021/03/15 02:59:59;;;;;;;8.50;7.70;;;8.80;99.90;;;;;;5093046;28;20406;-72
2021/03/15 03:02:25;;;;;;;7.90;7.20;;;8.80;99.90;;;;;;5092256;28;20447;-72
2021/03/15 03:04:51;;;;;;;7.60;7.00;;;8.80;99.90;;;;;;5093240;28;20240;-72
2021/03/15 03:07:20;;;;;;;8.20;7.40;;;8.80;99.90;;;;;;5092701;28;20490;-73
2021/03/15 03:09:46;;;;;;;7.40;6.80;;;8.80;99.90;;;;;;5092948;28;20402;-72
2021/03/15 03:12:14;;;;;;;7.70;7.10;;;8.70;99.90;;;;;;5092068;28;20399;-73
2021/03/15 03:14:41;;;;;;;8.10;7.40;;;8.80;99.90;;;;;;5092789;28;20379;-72
2021/03/15 03:17:10;;;;;;;7.30;6.60;;;8.80;99.90;;;;;;5092893;28;20405;-72
2021/03/15 03:19:39;;;;;;;7.80;7.10;;;8.80;99.90;;;;;;5092811;28;20399;-72
2021/03/15 03:22:06;;;;;;;7.07;6.57;;;8.80;99.90;;;;;;5092860;28;20384;-72
2021/03/15 03:24:33;;;;;;;8.17;6.90;;;8.80;99.90;;;;;;5092273;28;20425;-72
2021/03/15 03:27:00;;;;;;;7.37;6.77;;;8.90;99.90;;;;;;5092854;28;20405;-72
2021/03/15 03:29:28;;;;;;;7.33;6.60;;;8.80;99.90;;;;;;5092021;28;20782;-72
2021/03/15 03:31:57;;;;;;;7.13;6.47;;;8.80;99.90;;;;;;5092939;28;20489;-72
2021/03/15 03:34:23;;;;;;;6.50;6.00;;;8.80;99.90;;;;;;5091760;28;20466;-72
2021/03/15 03:36:49;;;;;;;7.60;6.30;;;8.80;99.90;;;;;;5092866;28;20896;-72
2021/03/15 03:39:15;;;;;;;7.07;6.37;;;8.90;99.90;;;;;;5091846;28;20412;-73
2021/03/15 03:41:41;;;;;;;6.63;6.00;;;8.80;99.90;;;;;;5092704;28;20497;-72
2021/03/15 03:44:11;;;;;;;6.20;5.67;;;8.90;99.90;;;;;;5074112;28;20569;-72
2021/03/15 03:46:39;;;;;;;8.20;7.23;;;8.90;99.90;;;;;;5074427;28;20394;-72
2021/03/15 03:49:05;;;;;;;6.03;5.50;;;8.90;99.90;;;;;;5092501;28;20931;-72
2021/03/15 03:51:51;;;;;;;6.10;5.50;;;8.90;99.90;;;;;;5091504;28;20402;-72
2021/03/15 03:54:23;;;;;;;6.30;5.70;;;8.90;99.90;;;;;;5091847;28;20381;-72
2021/03/15 03:56:57;;;;;;;7.90;7.23;;;9.00;99.90;;;;;;5091692;28;20387;-72
2021/03/15 03:59:27;;;;;;;7.40;6.80;;;9.00;99.90;;;;;;5091713;28;20394;-73
2021/03/15 04:01:57;;;;;;;7.80;6.80;;;9.00;99.90;;;;;;5092345;28;20401;-72
2021/03/15 04:04:25;;;;;;;6.97;6.40;;;9.00;99.90;;;;;;5073511;28;20485;-72
2021/03/15 04:06:52;;;;;;;6.83;6.33;;;9.00;99.90;;;;;;5074685;28;20403;-72
2021/03/15 04:09:31;;;;;;;8.40;5.73;;;9.00;99.90;;;;;;5091501;28;20441;-72
2021/03/15 04:12:02;;;;;;;6.50;5.93;;;9.00;99.90;;;;;;5092076;28;20489;-72
2021/03/15 04:14:38;;;;;;;6.80;6.20;;;8.90;99.90;;;;;;5091848;28;20471;-72
2021/03/15 04:17:05;;;;;;;6.40;5.80;;;8.90;99.90;;;;;;5092335;28;20478;-72
2021/03/15 04:19:45;;;;;;;8.30;6.63;;;8.90;99.90;;;;;;5091144;28;20421;-72
2021/03/15 04:22:12;;;;;;;6.77;6.17;;;9.00;99.90;;;;;;5092169;28;20421;-72
2021/03/15 04:24:40;;;;;;;7.73;7.03;;;9.00;99.90;;;;;;5091377;28;20438;-72
2021/03/15 04:27:08;;;;;;;7.40;6.77;;;9.00;99.90;;;;;;5092184;28;20893;-71
2021/03/15 04:29:35;;;;;;;7.73;6.93;;;9.00;99.90;;;;;;5091236;28;20459;-72
2021/03/15 04:32:03;;;;;;;8.40;7.60;;;8.90;99.90;;;;;;5091957;28;20428;-72
2021/03/15 04:34:32;;;;;;;8.13;7.43;;;8.90;99.90;;;;;;5091284;28;20407;-72
2021/03/15 04:36:59;;;;;;;9.13;8.33;;;8.90;99.90;;;;;;5092038;28;20746;-72
2021/03/15 04:39:28;;;;;;;8.53;7.73;;;8.90;99.90;;;;;;5091214;28;20802;-72
2021/03/15 04:42:00;;;;;;;10.33;9.43;;;8.80;99.90;;;;;;5091527;28;20763;-72
2021/03/15 04:44:26;;;;;;;8.43;7.50;;;8.90;99.90;;;;;;5092074;28;20458;-72
2021/03/15 04:46:53;;;;;;;8.40;7.70;;;8.90;99.90;;;;;;5092394;28;20481;-72
2021/03/15 04:49:19;;;;;;;8.90;7.83;;;8.90;99.90;;;;;;5091709;28;20410;-72
2021/03/15 04:51:45;;;;;;;8.50;7.77;;;8.90;99.90;;;;;;5092409;28;20421;-72
2021/03/15 04:54:11;;;;;;;10.40;9.50;;;8.90;99.90;;;;;;5092277;28;20413;-72
2021/03/15 04:56:38;;;;;;;10.93;9.47;;;8.90;99.90;;;;;;5091841;28;20421;-72
2021/03/15 04:59:06;;;;;;;10.30;9.30;;;8.90;99.90;;;;;;5092526;28;20882;-72
2021/03/15 05:01:35;;;;;;;11.13;10.03;;;8.90;99.90;;;;;;5073781;28;20430;-72
2021/03/15 05:04:06;;;;;;;10.53;9.57;;;8.90;99.90;;;;;;5091893;28;20460;-71
2021/03/15 05:06:33;;;;;;;8.17;7.37;;;8.90;99.90;;;;;;5091505;28;20398;-72
2021/03/15 05:09:00;;;;;;;7.63;6.83;;;8.90;99.90;;;;;;5095542;28;20900;-72
2021/03/15 05:11:30;;;;;;;10.03;9.13;;;8.90;99.90;;;;;;5095121;28;20408;-72
2021/03/15 05:13:59;;;;;;;8.93;8.23;;;8.80;99.90;;;;;;5095768;28;20746;-72
2021/03/15 05:16:27;;;;;;;8.43;7.63;;;8.80;99.90;;;;;;5095014;28;20408;-72
2021/03/15 05:18:54;;;;;;;9.47;8.47;;;8.80;99.90;;;;;;5095685;28;20403;-72
2021/03/15 05:21:22;;;;;;;8.67;7.87;;;8.80;99.90;;;;;;5094993;28;20406;-72
2021/03/15 05:23:49;;;;;;;8.80;8.00;;;8.80;99.90;;;;;;5095398;28;20465;-72
2021/03/15 05:26:15;;;;;;;8.33;7.63;;;8.90;99.90;;;;;;5095315;28;20410;-72
2021/03/15 05:28:44;;;;;;;8.20;7.50;;;8.80;99.90;;;;;;5095425;28;20401;-72
2021/03/15 05:31:12;;;;;;;8.23;7.53;;;8.70;99.90;;;;;;5095603;28;20414;-72
2021/03/15 05:33:39;;;;;;;6.83;6.23;;;8.70;99.90;;;;;;5094614;28;20441;-72
2021/03/15 05:36:09;;;;;;;7.00;6.40;;;8.70;99.90;;;;;;5095338;28;20406;-72
2021/03/15 05:38:37;;;;;;;6.43;5.83;;;8.70;99.90;;;;;;5087157;28;21128;-72
2021/03/15 05:41:04;;;;;;;6.47;5.87;;;8.70;99.90;;;;;;5075100;28;20429;-72
2021/03/15 05:43:48;;;;;;;5.97;5.47;;;8.70;99.90;;;;;;5073817;28;20470;-72
2021/03/15 05:46:46;;;;;;;6.10;5.60;;;8.70;99.90;;;;;;5075048;28;20374;-72
2021/03/15 05:49:49;;;;;;;5.80;5.17;;;8.70;99.90;;;;;;5035965;28;20479;-72
2021/03/15 05:52:51;;;;;;;5.83;5.43;;;8.60;99.90;;;;;;4985170;28;20451;-72
2021/03/15 05:55:38;;;;;;;5.30;5.00;;;8.60;99.90;;;;;;5074100;28;20419;-73
2021/03/15 05:58:13;;;;;;;5.07;4.60;;;8.60;99.90;;;;;;5074735;28;20406;-73
2021/03/15 06:00:51;;;;;;;6.10;5.70;;;8.50;99.90;;;;;;5073931;28;20463;-72
2021/03/15 06:03:41;;;;;;;5.33;4.97;;;8.50;99.90;;;;;;5066956;28;20491;-73
2021/03/15 06:06:11;;;;;;;6.60;6.20;;;8.50;99.90;;;;;;5094995;28;20397;-72
2021/03/15 06:08:44;;;;;;;4.53;4.23;;;8.50;99.90;;;;;;5093669;28;20696;-71
2021/03/15 06:11:18;;;;;;;4.37;4.00;;;8.50;99.90;;;;;;5094612;28;20734;-71
2021/03/15 06:13:44;;;;;;;6.40;6.00;;;8.40;99.90;;;;;;5076555;28;20406;-72
2021/03/15 06:16:11;;;;;;;4.40;4.00;;;8.50;99.90;;;;;;5094521;28;20384;-72
2021/03/15 06:18:37;;;;;;;6.80;6.40;;;8.50;99.90;;;;;;5093173;28;20492;-73
2021/03/15 06:21:04;;;;;;;5.63;5.23;;;8.50;99.90;;;;;;5093120;28;20422;-73
2021/03/15 06:23:31;;;;;;;4.77;4.43;;;8.50;99.90;;;;;;5093063;28;20791;-72
2021/03/15 06:25:57;;;;;;;4.97;4.57;;;8.50;99.90;;;;;;5092637;28;20765;-72
2021/03/15 06:28:24;;;;;;;5.23;4.83;;;8.50;99.90;;;;;;5093480;28;20409;-71
2021/03/15 06:30:52;;;;;;;5.07;4.67;;;8.50;99.90;;;;;;5074842;28;20410;-72
2021/03/15 06:33:19;;;;;;;5.80;5.40;;;8.50;99.90;;;;;;5088294;28;20429;-72
2021/03/15 06:35:47;;;;;;;5.97;5.57;;;8.60;99.90;;;;;;5038302;28;20413;-73
2021/03/15 06:38:16;;;;;;;5.80;5.30;;;8.60;99.90;;;;;;5080325;28;20519;-71
2021/03/15 06:40:44;;;;;;;6.77;6.17;;;8.60;99.90;;;;;;5092871;28;20518;-71
2021/03/15 06:43:15;;;;;;;6.20;5.70;;;8.60;99.90;;;;;;5093958;28;20797;-71
2021/03/15 06:45:45;;;;;;;6.10;5.70;;;8.50;99.90;;;;;;5093336;28;20414;-71
2021/03/15 06:48:11;;;;;;;6.57;6.07;;;8.50;99.90;;;;;;5093805;28;20393;-71
2021/03/15 06:50:37;;;;;;;5.23;4.83;;;8.50;99.90;;;;;;5092827;28;20390;-72
2021/03/15 06:53:05;;;;;;;6.97;6.47;;;8.60;99.90;;;;;;5093630;28;20724;-72
2021/03/15 06:55:44;;;;;;;18.87;16.87;;;8.60;99.90;;;;;;5092237;28;20254;-72
2021/03/15 06:58:24;;;;;;;7.20;6.00;;;8.60;99.90;;;;;;5093074;28;20442;-72
2021/03/15 07:01:14;;;;;;;7.57;6.93;;;8.60;99.90;;;;;;5092692;28;20410;-71
2021/03/15 07:03:40;;;;;;;9.60;8.70;;;8.70;99.90;;;;;;5092662;28;20450;-72
2021/03/15 07:06:07;;;;;;;8.60;7.90;;;9.10;99.90;;;;;;5092706;28;20493;-72
2021/03/15 07:08:33;;;;;;;9.93;8.10;;;9.70;99.90;;;;;;5092389;28;20402;-73
2021/03/15 07:11:00;;;;;;;8.57;7.87;;;10.30;99.90;;;;;;5092876;28;20399;-73
2021/03/15 07:13:37;;;;;;;11.20;10.30;;;10.90;99.90;;;;;;5092153;28;20768;-72
2021/03/15 07:16:03;;;;;;;8.47;7.67;;;11.50;99.90;;;;;;5093281;28;20455;-72
2021/03/15 07:18:34;;;;;;;8.17;7.57;;;12.00;99.90;;;;;;5092707;28;20409;-73
2021/03/15 07:21:04;;;;;;;9.67;8.70;;;12.40;99.40;;;;;;5093306;28;20409;-73
2021/03/15 07:23:42;;;;;;;6.93;6.33;;;12.70;96.60;;;;;;5092855;28;20467;-73
2021/03/15 07:26:24;;;;;;;6.57;6.07;;;13.00;96.90;;;;;;5078939;28;20952;-73
2021/03/15 07:28:51;;;;;;;9.50;7.13;;;13.10;93.30;;;;;;5074401;28;20413;-71
2021/03/15 07:31:22;;;;;;;8.33;7.43;;;12.90;91.80;;;;;;5079206;28;20413;-72
2021/03/15 07:34:08;;;;;;;8.13;7.43;;;12.60;92.00;;;;;;5086764;28;20427;-71
2021/03/15 07:36:47;;;;;;;9.00;7.90;;;12.20;92.50;;;;;;5089131;28;20423;-70
2021/03/15 07:39:13;;;;;;;8.77;7.97;;;11.70;92.90;;;;;;5079610;28;20409;-70
2021/03/15 07:41:40;;;;;;;9.13;7.57;;;11.40;93.70;;;;;;5079985;28;20436;-71
2021/03/15 07:44:21;;;;;;;7.93;7.13;;;11.10;94.30;;;;;;5090609;28;20520;-71
2021/03/15 07:46:49;;;;;;;8.10;7.50;;;10.70;95.20;;;;;;5091100;28;20500;-71
2021/03/15 07:49:26;;;;;;;8.37;7.57;;;10.50;95.50;;;;;;5090794;28;20427;-70
2021/03/15 07:51:54;;;;;;;9.17;8.27;;;10.40;96.00;;;;;;5091790;28;20433;-70
2021/03/15 07:54:24;;;;;;;7.73;6.87;;;10.30;96.60;;;;;;5091095;28;20741;-70
2021/03/15 07:57:10;;;;;;;10.20;8.10;;;10.10;97.20;;;;;;5091388;28;20427;-70
2021/03/15 07:59:36;;;;;;;9.50;8.53;;;10.00;96.90;;;;;;5078262;28;20813;-71
2021/03/15 08:02:03;;;;;;;9.90;9.00;;;10.00;97.40;;;;;;5082036;28;20915;-71
2021/03/15 08:04:30;;;;;;;10.60;9.60;;;9.90;98.40;;;;;;5071883;28;20447;-71
2021/03/15 08:06:56;;;;;;;9.80;8.80;;;9.90;98.20;;;;;;5091119;28;20396;-71
2021/03/15 08:09:22;;;;;;;10.40;9.50;;;9.90;98.30;;;;;;5092594;28;20410;-72
2021/03/15 08:11:50;;;;;;;10.30;9.40;;;9.70;98.50;;;;;;5073454;28;20437;-72
2021/03/15 08:14:18;;;;;;;11.93;10.70;;;9.70;98.90;;;;;;5091412;28;20267;-72
2021/03/15 08:16:46;;;;;;;10.50;8.97;;;9.70;99.20;;;;;;5066434;28;20416;-72
2021/03/15 08:19:13;;;;;;;12.23;10.57;;;9.70;99.60;;;;;;5074050;28;20395;-72
2021/03/15 08:21:40;;;;;;;11.23;9.73;;;9.70;99.50;;;;;;5074028;28;20455;-72
2021/03/15 08:24:07;;;;;;;10.67;9.57;;;9.70;99.70;;;;;;5091536;28;20466;-72
2021/03/15 08:26:33;;;;;;;11.40;8.87;;;9.70;99.90;;;;;;5089145;28;20414;-73
2021/03/15 08:29:03;;;;;;;10.37;9.37;;;9.60;99.80;;;;;;5090619;28;20426;-73
2021/03/15 08:31:34;;;;;;;10.37;9.37;;;9.40;99.60;;;;;;5071724;28;20786;-73
2021/03/15 08:34:00;;;;;;;11.60;8.30;;;9.50;99.80;;;;;;5088521;28;20443;-71
2021/03/15 08:36:41;;;;;;;11.57;10.37;;;9.50;99.80;;;;;;5091786;28;20399;-73
2021/03/15 08:39:26;;;;;;;9.33;8.30;;;9.30;99.90;;;;;;5091771;28;20394;-72
2021/03/15 08:42:15;;;;;;;12.50;8.90;;;9.30;99.90;;;;;;5092510;28;20402;-71
2021/03/15 08:44:45;;;;;;;8.40;7.67;;;9.30;99.80;;;;;;5067235;28;20433;-71
2021/03/15 08:47:13;;;;;;;11.27;9.03;;;9.30;99.60;;;;;;5082529;28;20412;-72
2021/03/15 08:49:42;;;;;;;9.70;8.70;;;9.30;99.90;;;;;;5094560;28;20438;-72
2021/03/15 08:52:12;;;;;;;7.27;6.50;;;9.40;99.90;;;;;;5084557;28;20429;-72
2021/03/15 08:54:48;;;;;;;6.80;5.87;;;9.30;99.90;;;;;;5095154;28;20402;-72
2021/03/15 08:57:34;;;;;;;6.90;5.80;;;9.20;99.80;;;;;;5092804;28;20428;-71
2021/03/15 09:00:31;;;;;;;8.03;5.20;;;9.30;99.60;;;;;;5076096;28;20469;-72
2021/03/15 09:02:57;;;;;;;7.30;5.57;;;9.20;99.10;;;;;;5081852;28;20929;-73
2021/03/15 09:05:25;;;;;;;6.10;5.50;;;9.20;98.90;;;;;;5095641;28;20413;-71
2021/03/15 09:07:51;;;;;;;7.60;5.70;;;9.40;98.60;;;;;;5094409;28;20625;-71
2021/03/15 09:10:23;;;;;;;6.53;5.20;;;9.50;99.20;;;;;;5092021;28;20840;-71
2021/03/15 09:13:10;;;;;;;6.03;4.43;;;9.60;97.90;;;;;;5074860;28;20418;-72
2021/03/15 09:15:37;;;;;;;6.80;5.27;;;9.70;98.00;;;;;;5074808;28;20461;-71
2021/03/15 09:18:37;;;;;;;8.13;4.90;;;9.70;97.70;;;;;;5082873;28;20467;-72
2021/03/15 09:21:04;;;;;;;5.40;4.60;;;9.70;97.50;;;;;;5091691;28;20418;-71
2021/03/15 09:23:33;;;;;;;4.70;3.97;;;9.70;98.10;;;;;;5087243;28;20462;-72
2021/03/15 09:26:20;;;;;;;4.97;4.20;;;9.70;97.70;;;;;;5087073;28;20415;-72
2021/03/15 09:28:46;;;;;;;9.00;4.80;;;9.70;97.90;;;;;;5088302;28;20517;-71
2021/03/15 09:31:12;;;;;;;6.30;4.60;;;9.70;97.60;;;;;;5094398;28;20454;-71
2021/03/15 09:33:38;;;;;;;6.33;5.20;;;9.60;97.20;;;;;;5094486;28;20765;-72
2021/03/15 09:36:04;;;;;;;7.90;5.40;;;9.60;97.80;;;;;;5094424;28;20184;-72
2021/03/15 09:38:30;;;;;;;8.13;5.70;;;9.50;97.60;;;;;;5094038;28;20418;-73
2021/03/15 09:40:57;;;;;;;6.13;4.93;;;9.50;98.00;;;;;;5078206;28;20173;-72
2021/03/15 09:43:24;;;;;;;6.80;5.33;;;9.60;97.80;;;;;;5093922;28;20480;-71
2021/03/15 09:45:55;;;;;;;10.87;5.90;;;9.60;98.30;;;;;;5074010;28;20426;-71
2021/03/15 09:48:22;;;;;;;7.70;5.30;;;9.70;98.00;;;;;;5094852;28;20429;-71
2021/03/15 09:50:53;;;;;;;4.80;4.30;;;9.70;97.90;;;;;;5094404;28;20403;-71
2021/03/15 09:53:20;;;;;;;4.50;4.17;;;9.60;98.30;;;;;;5076118;28;20419;-73
2021/03/15 09:55:47;;;;;;;8.27;5.13;;;9.60;98.10;;;;;;5093131;28;20425;-71
2021/03/15 09:58:16;;;;;;;7.20;4.57;;;9.50;98.70;;;;;;5094190;28;20422;-71
2021/03/15 10:00:42;;;;;;;6.10;4.77;;;9.50;99.10;;;;;;5093275;28;20441;-72
2021/03/15 10:03:18;;;;;;;5.53;5.03;;;9.40;99.40;;;;;;5094643;28;20541;-72
2021/03/15 10:05:47;;;;;;;5.20;4.80;;;9.40;99.20;;;;;;5093454;28;20413;-73
2021/03/15 10:08:12;;;;;;;6.73;6.13;;;9.40;99.90;;;;;;5093551;28;20504;-72
2021/03/15 10:10:38;;;;;;;7.13;4.80;;;9.50;99.70;;;;;;5093583;28;20493;-71
2021/03/15 10:13:06;;;;;;;4.47;4.07;;;9.50;99.10;;;;;;5076165;28;20199;-71
2021/03/15 10:15:32;;;;;;;6.77;4.20;;;9.70;98.50;;;;;;5075964;28;20256;-72
2021/03/15 10:17:58;;;;;;;5.47;3.70;;;9.70;98.30;;;;;;5093643;28;20438;-71
2021/03/15 10:20:27;;;;;;;4.80;3.90;;;9.90;98.60;;;;;;5093960;28;20404;-71
2021/03/15 10:22:53;;;;;;;6.63;3.20;;;10.20;97.70;;;;;;5091285;28;20515;-71
2021/03/15 10:25:19;;;;;;;2.83;2.57;;;10.30;94.50;;;;;;5055665;28;20876;-71
2021/03/15 10:27:57;;;;;;;3.70;3.17;;;10.40;94.50;;;;;;5072993;28;20399;-71
2021/03/15 10:30:31;;;;;;;6.40;4.07;;;10.60;94.10;;;;;;5055949;28;20170;-71
2021/03/15 10:32:59;;;;;;;4.87;3.50;;;10.60;93.40;;;;;;5075129;28;20466;-71
2021/03/15 10:35:27;;;;;;;3.73;3.03;;;10.60;94.10;;;;;;5075439;28;20421;-71
2021/03/15 10:37:56;;;;;;;4.00;3.10;;;10.60;92.80;;;;;;5074585;28;20421;-71
2021/03/15 10:40:23;;;;;;;3.87;3.53;;;10.50;93.50;;;;;;5093246;28;20408;-73
2021/03/15 10:42:50;;;;;;;3.73;2.70;;;10.40;93.30;;;;;;5092064;28;20462;-72
2021/03/15 10:45:16;;;;;;;6.47;4.10;;;10.50;94.00;;;;;;5093714;28;20867;-72
2021/03/15 10:47:43;;;;;;;6.73;3.80;;;10.50;94.50;;;;;;5092526;28;20458;-72
2021/03/15 10:50:29;;;;;;;4.43;3.80;;;10.60;96.30;;;;;;5075461;28;20771;-72
2021/03/15 10:52:56;;;;;;;4.30;3.90;;;10.70;94.40;;;;;;5092623;28;20407;-72
2021/03/15 10:55:30;;;;;;;5.83;4.43;;;10.60;94.20;;;;;;5093168;28;20501;-73
2021/03/15 10:58:08;;;;;;;5.03;4.30;;;10.40;95.40;;;;;;5091673;28;20403;-72
2021/03/15 11:00:41;;;;;;;5.50;4.40;;;10.20;96.10;;;;;;5074895;28;20414;-73
2021/03/15 11:03:09;;;;;;;4.23;3.93;;;10.10;97.10;;;;;;5092992;28;20501;-73
2021/03/15 11:05:35;;;;;;;4.77;4.33;;;10.10;97.90;;;;;;5061254;28;20878;-73
2021/03/15 11:08:01;;;;;;;5.07;4.70;;;10.10;97.50;;;;;;5092921;28;20464;-73
2021/03/15 11:10:30;;;;;;;4.77;3.83;;;10.00;97.80;;;;;;5088511;28;20421;-73
2021/03/15 11:13:00;;;;;;;4.50;4.10;;;10.00;98.70;;;;;;5075988;28;21081;-70
2021/03/15 11:15:38;;;;;;;5.73;3.43;;;10.10;98.70;;;;;;5068630;28;20399;-72
2021/03/15 11:18:05;;;;;;;4.83;3.43;;;10.00;98.10;;;;;;5087940;28;20410;-71
2021/03/15 11:20:41;;;;;;;3.93;3.63;;;10.00;98.00;;;;;;5090482;28;20463;-72
2021/03/15 11:23:08;;;;;;;6.03;3.50;;;10.00;97.70;;;;;;5074060;28;20556;-72
2021/03/15 11:25:35;;;;;;;6.87;3.50;;;10.10;98.20;;;;;;5072008;28;20433;-72
2021/03/15 11:28:05;;;;;;;7.03;3.70;;;10.10;98.00;;;;;;5086343;28;20940;-72
2021/03/15 11:30:31;;;;;;;4.07;3.47;;;10.10;98.50;;;;;;5092483;28;20493;-72
2021/03/15 11:33:02;;;;;;;7.67;3.00;;;10.30;98.30;;;;;;5091868;28;21021;-72
2021/03/15 11:35:29;;;;;;;4.33;3.07;;;10.40;98.10;;;;;;5092438;28;20407;-72
2021/03/15 11:37:57;;;;;;;4.23;3.60;;;10.60;97.90;;;;;;5091889;28;20401;-73
2021/03/15 11:40:33;;;;;;;3.33;3.03;;;10.60;96.00;;;;;;5092878;28;20740;-72
2021/03/15 11:43:00;;;;;;;3.67;3.30;;;10.60;96.20;;;;;;5090507;28;20465;-73
2021/03/15 11:45:27;;;;;;;4.33;3.40;;;10.60;95.80;;;;;;5092794;28;20402;-73
2021/03/15 11:47:53;;;;;;;4.63;4.33;;;10.70;96.80;;;;;;5073331;28;20410;-72
2021/03/15 11:50:20;;;;;;;5.13;3.83;;;10.50;97.00;;;;;;5092317;28;20525;-73
2021/03/15 11:52:46;;;;;;;4.50;4.20;;;10.30;98.10;;;;;;5091713;28;20494;-73
2021/03/15 11:55:13;;;;;;;4.40;4.00;;;10.10;98.40;;;;;;5076378;28;20823;-71
2021/03/15 11:57:39;;;;;;;3.30;3.10;;;10.00;98.80;;;;;;5089394;28;20914;-72
2021/03/15 12:00:08;;;;;;;3.50;3.20;;;10.00;98.40;;;;;;5071996;28;20447;-73
2021/03/15 12:02:35;;;;;;;4.77;3.60;;;10.00;98.70;;;;;;5076751;28;20478;-73
2021/03/15 12:05:01;;;;;;;3.87;3.60;;;9.90;99.20;;;;;;5092352;28;20438;-73
2021/03/15 12:07:27;;;;;;;6.20;4.17;;;10.10;99.90;;;;;;5087690;28;20411;-73
2021/03/15 12:09:53;;;;;;;4.67;3.77;;;10.40;99.90;;;;;;5071914;28;20863;-73
2021/03/15 12:12:19;;;;;;;4.70;3.77;;;10.70;99.90;;;;;;5086867;28;20181;-73
2021/03/15 12:14:44;;;;;;;5.53;3.87;;;10.80;99.70;;;;;;5090250;28;20179;-73
2021/03/15 12:17:10;;;;;;;6.60;2.67;;;11.00;98.40;;;;;;5093200;28;20178;-73
2021/03/15 12:19:36;;;;;;;8.87;3.57;;;11.30;98.70;;;;;;5078454;28;20650;-73
2021/03/15 12:22:02;;;;;;;3.83;3.20;;;11.50;97.90;;;;;;5081541;28;20409;-73
2021/03/15 12:24:28;;;;;;;3.80;3.40;;;11.80;97.50;;;;;;5079370;28;20516;-73
2021/03/15 12:26:54;;;;;;;3.30;3.00;;;12.00;97.40;;;;;;5075751;28;20451;-73
2021/03/15 12:29:21;;;;;;;4.03;2.90;;;12.10;96.40;;;;;;5080296;28;20517;-73
2021/03/15 12:31:46;;;;;;;4.63;2.67;;;12.20;96.00;;;;;;5094497;28;20421;-73
2021/03/15 12:34:12;;;;;;;3.67;2.80;;;12.40;96.20;;;;;;5096257;28;20931;-73
2021/03/15 12:36:38;;;;;;;4.10;3.40;;;12.50;94.90;;;;;;5095753;28;20175;-73
2021/03/15 12:39:04;;;;;;;4.97;4.60;;;12.40;93.40;;;;;;5096170;28;20223;-73
2021/03/15 12:41:30;;;;;;;5.73;4.90;;;12.30;93.40;;;;;;5077138;28;20225;-73
2021/03/15 12:43:56;;;;;;;4.10;3.60;;;12.10;94.60;;;;;;5075282;28;20456;-73
2021/03/15 12:46:22;;;;;;;3.63;3.10;;;11.90;94.50;;;;;;5075998;28;20570;-73
2021/03/15 12:48:48;;;;;;;3.30;3.00;;;11.80;94.80;;;;;;5092547;28;20180;-74
2021/03/15 12:51:14;;;;;;;3.83;3.53;;;11.70;94.60;;;;;;5086204;28;20417;-76
2021/03/15 12:53:40;;;;;;;5.00;3.40;;;11.50;94.60;;;;;;5075208;28;20477;-74
2021/03/15 12:56:06;;;;;;;2.90;2.80;;;11.50;95.00;;;;;;5077205;28;20894;-74
2021/03/15 12:58:33;;;;;;;4.20;3.50;;;11.40;95.40;;;;;;5075388;28;20426;-74
2021/03/15 13:01:00;;;;;;;4.27;2.57;;;11.40;95.30;;;;;;5075371;28;20689;-74
2021/03/15 13:03:27;;;;;;;2.50;2.40;;;11.40;95.00;;;;;;5095663;28;20807;-74